Airfield :
LOGIN :

Register | Disclaimer

   EN    FR    IT 

 










Legend :    VFR   Marginal VFR   IFR   Intensive IFR   Very Intensive IFR
Visi :
Ceiling :
>= 8 km
>= 3000ft
5 to 8 km
1000 to 3000 ft
1500m to 5 km
500 to 1000 ft
800 to 1500m
200 to 500 ft
< 800m
< 200 ft
Symbols :   Thunderstorms  Fog  Heavy snow  Heavy precipitations  Wind > 20 kt
SIGMETs :     Misc.  Thunderstorms  Icing  Turbulence  Mountain Waves  Volcanic Ashes







- Airport Elevation : 94 ft
- IATA code : MUH


HEMM - Mersa Matruh

CURRENT METAR :
  • 170400Z 00000KT CAVOK 20/18 Q1015 NOSIG

EXPIRED METARs :
  • 170300Z 00000KT CAVOK 21/19 Q1015 NOSIG
  • 170200Z 00000KT CAVOK 22/21 Q1015 NOSIG

TAF TAF HEMM
Valid from the 17 at 00:00 until the 18 at 06:00 UTC


162300Z 1700/1806 28006KT CAVOK
TEMPO 1700/1706 VRB03KT 3000 BR NSC
BECMG 1710/1712 36009KT
No reported NOTAMs for that airfield.



MET'MAP, your aeronautical weather chart ! - Copyright ORBIFLY December 2007 - Disclaimer

ORBIFLY MET'MAP TEAM :

Programming & Development : Alexandra Zaïnal
Concept & Development : Baudouin d'Aumeries
Co-Development & Prog : Marc-Olivier Méhu
Technical & hardware support : Manuel Goepfert

Contact : metmap@orbifly.com




SOURCES & CREDITS :

   NOAA